Time;durP1;ratioP1;P1;durP2;ratioP2;P2;SDS_P1;SDS_P2;PMS_P1;PMS_P2;Temp;Humidity;BMP_temperature;BMP_pressure;BME280_temperature;BME280_humidity;BME280_pressure;Samples;Min_cycle;Max_cycle;Signal;HPM_P1;HPM_P2
2022/12/22 03:28:33;;;;;;;29.47;26.87;;;;;;;20.96;28.89;95177.97;6206375;28;105937;-68
2022/12/22 03:31:36;;;;;;;29.20;26.80;;;;;;;21.06;28.57;95194.56;6235647;28;103461;-68
2022/12/22 03:34:41;;;;;;;28.30;25.70;;;;;;;21.05;28.84;95185.00;6217172;28;103080;-68
2022/12/22 03:37:44;;;;;;;29.77;27.23;;;;;;;21.08;28.99;95186.28;6218537;28;103313;-67
2022/12/22 03:40:47;;;;;;;29.43;26.83;;;;;;;21.04;28.53;95179.94;6210014;28;102862;-68
2022/12/22 03:47:11;;;;;;;30.53;27.73;;;;;;;21.06;28.73;95191.91;6206289;28;103184;-68
2022/12/22 03:50:15;;;;;;;30.30;27.70;;;;;;;21.07;28.88;95195.34;6200704;27;103035;-68
2022/12/22 03:53:18;;;;;;;30.57;27.97;;;;;;;21.05;28.67;95185.00;6217501;28;103985;-68
2022/12/22 03:56:22;;;;;;;32.10;29.10;;;;;;;21.05;28.64;95187.66;6230245;28;103035;-68
2022/12/22 03:59:25;;;;;;;31.87;29.10;;;;;;;20.99;28.91;95188.00;6212813;28;102688;-68
2022/12/22 04:02:28;;;;;;;30.37;27.57;;;;;;;21.06;28.83;95193.78;6201689;28;103619;-68
2022/12/22 04:05:32;;;;;;;30.20;27.60;;;;;;;21.06;28.71;95197.22;6212071;28;103022;-69
2022/12/22 04:08:35;;;;;;;30.93;28.23;;;;;;;21.05;28.69;95197.50;6211332;28;103112;-67
2022/12/22 04:14:59;;;;;;;28.67;26.07;;;;;;;21.00;29.01;95189.56;6205006;28;105924;-63
2022/12/22 04:18:02;;;;;;;27.40;25.00;;;;;;;21.00;28.64;95186.91;6211089;28;103042;-63
2022/12/22 04:21:07;;;;;;;26.23;23.90;;;;;;;20.98;29.01;95187.22;6213108;28;103059;-63
2022/12/22 04:24:11;;;;;;;27.47;24.77;;;;;;;21.00;28.42;95187.69;6220699;28;103445;-64
2022/12/22 04:27:14;;;;;;;27.50;24.87;;;;;;;21.02;28.38;95184.78;6211061;28;104296;-65
2022/12/22 04:30:18;;;;;;;31.03;28.33;;;;;;;21.00;28.95;95185.03;6210818;28;102781;-64
2022/12/22 04:33:21;;;;;;;29.07;26.53;;;;;;;20.99;29.05;95185.34;6223997;28;103299;-65
2022/12/22 04:36:26;;;;;;;30.57;27.90;;;;;;;20.96;28.50;95178.75;6196639;28;102981;-64
2022/12/22 04:39:29;;;;;;;29.70;27.03;;;;;;;20.96;28.21;95183.28;6226230;28;103061;-66
2022/12/22 04:42:32;;;;;;;31.30;28.60;;;;;;;20.96;28.58;95185.94;6211224;28;104375;-65
2022/12/22 04:45:35;;;;;;;29.90;27.30;;;;;;;20.94;28.75;95188.91;6209701;28;103394;-65
2022/12/22 04:48:38;;;;;;;30.03;27.57;;;;;;;20.93;28.41;95185.44;6199242;28;103101;-65
2022/12/22 04:51:42;;;;;;;28.53;26.13;;;;;;;20.91;28.43;95182.28;6211888;28;104406;-65
2022/12/22 04:54:45;;;;;;;27.07;24.67;;;;;;;20.99;28.21;95188.78;6216076;28;103566;-65
2022/12/22 04:57:48;;;;;;;26.60;24.33;;;;;;;21.07;27.85;95190.03;6220430;28;104206;-64
2022/12/22 05:00:51;;;;;;;28.40;25.87;;;;;;;21.14;28.08;95191.19;6213556;28;103584;-66
2022/12/22 05:03:54;;;;;;;26.90;24.70;;;;;;;21.25;28.42;95196.34;6216850;28;104240;-66
2022/12/22 05:06:59;;;;;;;27.60;25.10;;;;;;;21.35;28.75;95186.28;6223882;28;104211;-66
2022/12/22 05:10:02;;;;;;;27.67;25.10;;;;;;;21.35;29.01;95191.59;6227201;27;103020;-66
2022/12/22 05:13:05;;;;;;;27.00;24.60;;;;;;;21.36;28.96;95190.53;6213630;28;103123;-64
2022/12/22 05:16:11;;;;;;;25.47;23.33;;;;;;;21.38;29.09;95190.22;6219980;28;103062;-65
2022/12/22 05:19:16;;;;;;;26.03;23.57;;;;;;;21.43;29.73;95185.56;6215205;28;102790;-69
2022/12/22 05:22:20;;;;;;;26.53;23.70;;;;;;;21.39;29.47;95187.25;6203866;28;105150;-68
2022/12/22 05:25:24;;;;;;;26.50;24.20;;;;;;;21.37;29.87;95193.97;6212629;28;103138;-69
2022/12/22 05:28:33;;;;;;;26.30;23.90;;;;;;;21.29;29.42;95187.44;6214860;28;102815;-68
2022/12/22 05:31:36;;;;;;;26.73;24.53;;;;;;;21.31;29.53;95189.81;6214595;28;106314;-69
2022/12/22 05:34:47;;;;;;;26.17;23.67;;;;;;;21.17;29.75;95179.97;6203436;28;104292;-69
2022/12/22 05:37:51;;;;;;;25.80;23.40;;;;;;;21.24;29.35;95187.56;6211693;28;102858;-68
2022/12/22 05:40:54;;;;;;;25.90;23.60;;;;;;;21.20;29.35;95198.00;6211786;28;103018;-68
2022/12/22 05:44:06;;;;;;;26.43;24.20;;;;;;;21.19;29.39;95196.44;6201620;28;103223;-68
2022/12/22 05:47:09;;;;;;;26.10;23.80;;;;;;;21.18;29.02;95191.41;6210481;28;103352;-68
2022/12/22 05:50:14;;;;;;;26.27;23.80;;;;;;;21.14;29.44;95190.41;6213348;28;105926;-69
2022/12/22 05:53:18;;;;;;;25.80;23.40;;;;;;;21.10;29.54;95189.44;6213529;28;104496;-69
2022/12/22 05:56:22;;;;;;;26.87;24.57;;;;;;;21.05;29.24;95187.66;6203527;28;104031;-69
2022/12/22 05:59:25;;;;;;;28.17;25.57;;;;;;;21.01;29.69;95188.53;6213226;28;103537;-68
2022/12/22 06:02:28;;;;;;;28.50;25.97;;;;;;;20.98;29.52;95197.06;6213270;28;103094;-68
2022/12/22 06:05:31;;;;;;;29.40;26.80;;;;;;;20.87;29.45;95191.94;6213221;28;103056;-68
2022/12/22 06:08:36;;;;;;;29.03;26.40;;;;;;;20.89;29.34;95195.09;6203308;28;102985;-69
2022/12/22 06:11:39;;;;;;;30.83;28.13;;;;;;;20.83;29.21;95187.50;6213107;28;103091;-69
2022/12/22 06:14:42;;;;;;;29.33;26.83;;;;;;;20.91;29.32;95197.47;6213224;28;103192;-69
2022/12/22 06:17:45;;;;;;;32.03;29.00;;;;;;;20.92;29.29;95199.84;6207074;28;103012;-68
2022/12/22 06:20:50;;;;;;;31.17;28.43;;;;;;;20.93;29.25;95193.44;6207972;28;102912;-69
2022/12/22 06:23:55;;;;;;;29.80;27.20;;;;;;;20.93;29.17;95189.97;6213921;28;102778;-69
2022/12/22 06:26:58;;;;;;;29.57;26.90;;;;;;;20.91;29.42;95182.28;6213032;28;103075;-69
2022/12/22 06:30:01;;;;;;;29.80;27.13;;;;;;;20.97;29.21;95198.94;6201168;28;103118;-69
2022/12/22 06:33:04;;;;;;;31.10;27.97;;;;;;;21.02;29.22;95195.41;6213921;28;106304;-69
2022/12/22 06:36:08;;;;;;;30.90;28.10;;;;;;;21.03;29.30;95199.66;6211918;28;103087;-69
2022/12/22 06:39:14;;;;;;;30.20;27.50;;;;;;;20.90;29.33;95188.69;6213380;28;103138;-68
2022/12/22 06:45:39;;;;;;;30.03;27.33;;;;;;;21.06;29.23;95199.09;6212377;28;103182;-69
2022/12/22 06:48:42;;;;;;;29.27;26.60;;;;;;;21.07;29.29;95206.00;6211251;28;103029;-69
2022/12/22 06:51:45;;;;;;;30.37;27.50;;;;;;;21.07;28.88;95206.00;6208149;28;103198;-69
2022/12/22 06:54:50;;;;;;;31.60;28.70;;;;;;;21.03;29.07;95197.00;6206714;28;103471;-69
2022/12/22 06:57:53;;;;;;;32.40;29.40;;;;;;;21.09;29.21;95209.94;6212407;28;103238;-69
2022/12/22 07:00:56;;;;;;;33.50;30.40;;;;;;;21.28;29.07;95207.16;6212427;28;103126;-69
2022/12/22 07:03:59;;;;;;;33.47;30.37;;;;;;;21.59;28.52;95212.69;6201499;28;103265;-68
2022/12/22 07:07:02;;;;;;;34.67;31.47;;;;;;;21.79;27.95;95214.91;6212212;28;104125;-69
2022/12/22 07:10:08;;;;;;;35.30;32.10;;;;;;;21.88;28.09;95215.03;6212131;28;103093;-68
2022/12/22 07:13:22;;;;;;;36.83;33.47;;;;;;;21.84;27.97;95199.91;6212049;28;104963;-70
2022/12/22 07:16:26;;;;;;;35.20;32.20;;;;;;;22.01;28.28;95210.72;6201665;28;103382;-68
2022/12/22 07:19:29;;;;;;;33.87;30.80;;;;;;;22.08;27.97;95214.56;6211006;28;103169;-65
2022/12/22 07:22:32;;;;;;;33.80;30.77;;;;;;;22.16;27.68;95218.38;6211279;28;104441;-65
2022/12/22 07:25:36;;;;;;;33.30;30.30;;;;;;;22.11;27.49;95221.97;6207937;28;104128;-65
2022/12/22 07:28:41;;;;;;;34.67;31.63;;;;;;;22.10;27.84;95222.25;6206055;28;104146;-64
2022/12/22 07:31:44;;;;;;;33.30;30.40;;;;;;;22.08;27.59;95219.91;6212453;28;105777;-64
2022/12/22 07:34:47;;;;;;;34.03;30.83;;;;;;;22.12;27.98;95225.41;6211172;28;103012;-65
2022/12/22 07:37:50;;;;;;;34.77;31.67;;;;;;;22.10;27.46;95209.72;6200676;28;103212;-65
2022/12/22 07:40:58;;;;;;;34.87;31.47;;;;;;;22.14;27.43;95214.44;6211707;28;103719;-64
2022/12/22 07:44:07;;;;;;;34.67;31.47;;;;;;;22.13;27.29;95212.88;6211297;28;103208;-65
2022/12/22 07:47:11;;;;;;;34.77;31.30;;;;;;;22.11;27.61;95207.84;6211444;28;103102;-65
2022/12/22 07:50:26;;;;;;;34.07;30.97;;;;;;;21.97;27.95;95186.56;6200492;27;103736;-65
2022/12/22 07:53:29;;;;;;;32.93;30.03;;;;;;;22.09;27.50;95205.50;6211929;28;103332;-65
2022/12/22 07:56:34;;;;;;;33.80;30.73;;;;;;;22.09;28.02;95210.81;6211312;28;103281;-64
2022/12/22 07:59:37;;;;;;;32.60;29.90;;;;;;;22.10;28.02;95214.28;6207160;28;103634;-64
2022/12/22 08:02:40;;;;;;;31.57;28.70;;;;;;;22.13;27.52;95215.53;6205703;28;104527;-64
2022/12/22 08:05:44;;;;;;;32.33;29.63;;;;;;;22.14;27.58;95207.25;6211219;28;106916;-64
2022/12/22 08:08:47;;;;;;;32.67;29.77;;;;;;;22.04;27.69;95197.63;6211498;28;103162;-65
2022/12/22 08:11:51;;;;;;;31.20;28.50;;;;;;;22.12;27.49;95209.41;6200637;28;103267;-65
2022/12/22 08:14:55;;;;;;;31.57;28.57;;;;;;;22.12;27.70;95204.09;6211011;28;103114;-65
2022/12/22 08:17:58;;;;;;;31.20;28.40;;;;;;;22.12;27.60;95201.44;6211611;28;104145;-65
2022/12/22 08:21:01;;;;;;;30.00;27.33;;;;;;;22.13;27.50;95204.88;6209802;28;103412;-65
2022/12/22 08:24:05;;;;;;;29.67;27.07;;;;;;;22.10;27.89;95212.38;6200924;28;104071;-64
2022/12/22 08:27:15;;;;;;;30.93;28.23;;;;;;;22.10;27.60;95214.28;6211238;28;103346;-64
2022/12/22 08:30:27;;;;;;;30.60;27.90;;;;;;;22.09;28.05;95210.03;6210905;28;102973;-64
2022/12/22 08:33:30;;;;;;;30.87;28.20;;;;;;;22.03;27.55;95189.94;6210630;28;103075;-64
2022/12/22 08:36:38;;;;;;;29.60;27.00;;;;;;;22.09;27.77;95194.81;6202020;28;104467;-66
2022/12/22 08:39:44;;;;;;;29.07;26.60;;;;;;;22.05;27.45;95201.06;6210678;28;103018;-66
2022/12/22 08:42:52;;;;;;;29.67;27.07;;;;;;;22.07;28.05;95202.34;6210398;28;102840;-64
2022/12/22 08:45:55;;;;;;;28.93;26.33;;;;;;;22.08;28.21;95203.91;6202126;28;103437;-65
2022/12/22 08:48:59;;;;;;;28.07;25.63;;;;;;;22.06;27.66;95203.44;6209759;28;103065;-65
2022/12/22 08:52:02;;;;;;;28.47;25.87;;;;;;;22.07;28.02;95196.22;6210028;28;103110;-64
2022/12/22 08:55:07;;;;;;;29.13;26.70;;;;;;;21.99;27.77;95173.72;6210596;28;103545;-65
2022/12/22 08:58:12;;;;;;;28.53;26.13;;;;;;;22.05;28.21;95188.53;6200013;28;105396;-65
2022/12/22 09:01:17;;;;;;;26.53;24.23;;;;;;;22.04;28.01;95186.97;6210628;28;103630;-65
2022/12/22 09:04:23;;;;;;;27.97;25.57;;;;;;;22.03;28.22;95180.06;6209738;28;104227;-64
2022/12/22 09:07:26;;;;;;;26.70;24.50;;;;;;;21.96;27.93;95158.34;6210676;28;103307;-65
2022/12/22 09:10:29;;;;;;;26.77;24.27;;;;;;;22.04;27.99;95162.97;6199725;28;104058;-64
2022/12/22 09:13:34;;;;;;;25.73;23.53;;;;;;;22.04;27.72;95165.63;6209936;28;102992;-64
2022/12/22 09:16:38;;;;;;;26.33;24.10;;;;;;;22.04;28.16;95148.88;6210465;28;103390;-63
2022/12/22 09:19:41;;;;;;;25.57;23.37;;;;;;;22.09;27.75;95156.72;6203210;28;103184;-64
2022/12/22 09:22:44;;;;;;;25.47;23.27;;;;;;;22.10;27.96;95147.63;6206196;28;103012;-64
2022/12/22 09:25:47;;;;;;;24.67;22.50;;;;;;;22.09;27.77;95152.19;6210224;28;103983;-63
2022/12/22 09:28:52;;;;;;;24.87;22.63;;;;;;;22.06;27.74;95136.81;6210754;28;103151;-64
2022/12/22 09:31:55;;;;;;;23.17;21.03;;;;;;;22.10;28.11;95137.78;6199330;28;105415;-63
2022/12/22 09:34:58;;;;;;;23.77;21.77;;;;;;;22.11;27.51;95136.69;6209787;28;103936;-65
2022/12/22 09:38:01;;;;;;;23.67;21.47;;;;;;;22.15;27.52;95146.72;6209672;28;103023;-65
2022/12/22 09:41:09;;;;;;;24.57;22.37;;;;;;;22.13;27.71;95139.03;6209835;28;103099;-65
2022/12/22 09:44:25;;;;;;;24.50;22.40;;;;;;;22.17;27.63;95139.22;6199341;28;104256;-63
2022/12/22 09:47:36;;;;;;;23.90;21.70;;;;;;;22.18;28.02;95136.28;6212906;28;103201;-64
2022/12/22 09:50:41;;;;;;;23.40;21.40;;;;;;;22.20;28.11;95127.97;6213824;28;103514;-64
2022/12/22 09:53:48;;;;;;;23.67;21.57;;;;;;;22.22;28.24;95129.22;6207572;28;103528;-64
2022/12/22 09:56:51;;;;;;;23.23;21.13;;;;;;;22.25;28.02;95139.28;6211424;28;103233;-65
2022/12/22 09:59:56;;;;;;;22.47;20.53;;;;;;;22.25;28.09;95130.50;6214033;28;104151;-64
2022/12/22 10:03:09;;;;;;;23.23;21.30;;;;;;;22.28;27.92;95121.88;6213180;28;103504;-64
2022/12/22 10:06:18;;;;;;;22.67;20.67;;;;;;;22.29;27.81;95115.47;6204288;27;103614;-65
2022/12/22 10:09:24;;;;;;;23.23;21.03;;;;;;;22.20;28.01;95087.97;6213917;28;104263;-63
2022/12/22 10:12:49;;;;;;;22.27;20.27;;;;;;;22.29;27.89;95092.25;6213260;28;102845;-65
2022/12/22 10:15:54;;;;;;;22.33;20.33;;;;;;;22.29;28.18;95083.47;6211791;28;105587;-64
2022/12/22 10:19:00;;;;;;;23.60;21.50;;;;;;;22.30;27.87;95079.72;6207599;27;105875;-64
2022/12/22 10:22:20;;;;;;;22.17;20.17;;;;;;;22.29;27.88;95075.47;6213062;28;102982;-64
2022/12/22 10:25:28;;;;;;;20.80;19.10;;;;;;;22.24;28.23;95064.94;6212672;28;102691;-64
2022/12/22 10:28:55;;;;;;;21.93;20.13;;;;;;;22.31;28.21;95065.28;6202529;28;102934;-64
2022/12/22 10:32:02;;;;;;;21.53;19.63;;;;;;;22.27;27.96;95056.34;6213556;28;103242;-64
2022/12/22 10:35:07;;;;;;;22.00;20.00;;;;;;;22.31;28.17;95063.41;6213253;28;104147;-64
2022/12/22 10:38:19;;;;;;;21.90;19.90;;;;;;;22.31;28.25;95062.63;6213722;28;105422;-65
2022/12/22 10:41:26;;;;;;;21.53;19.43;;;;;;;22.32;28.05;95058.88;6202287;28;104346;-64
2022/12/22 10:44:33;;;;;;;20.20;18.50;;;;;;;22.33;28.04;95055.09;6212907;28;103108;-64
2022/12/22 10:47:38;;;;;;;19.77;18.10;;;;;;;22.34;28.15;95056.69;6212333;28;103173;-64
2022/12/22 10:50:47;;;;;;;19.90;18.20;;;;;;;22.33;27.79;95057.78;6203910;28;103627;-64
2022/12/22 10:53:52;;;;;;;21.20;19.20;;;;;;;22.22;27.97;95027.16;6212597;28;103119;-65
2022/12/22 10:57:00;;;;;;;19.43;17.73;;;;;;;22.32;27.97;95037.53;6211356;28;103242;-64
2022/12/22 11:00:23;;;;;;;20.20;18.47;;;;;;;22.31;28.35;95030.63;6212662;28;103322;-64
2022/12/22 11:03:31;;;;;;;19.90;18.20;;;;;;;22.33;28.43;95039.91;6200590;28;103194;-64
2022/12/22 11:06:34;;;;;;;20.27;18.47;;;;;;;22.21;28.02;95017.59;6212767;28;103316;-64
2022/12/22 11:09:37;;;;;;;20.23;18.53;;;;;;;22.33;28.52;95023.09;6212179;28;103093;-64
2022/12/22 11:13:02;;;;;;;19.10;17.50;;;;;;;22.31;28.42;95025.31;6208585;28;103253;-64
2022/12/22 11:16:14;;;;;;;19.70;18.00;;;;;;;22.30;28.53;95018.41;6207002;28;103118;-65
2022/12/22 11:19:38;;;;;;;19.27;17.67;;;;;;;22.28;28.22;95009.94;6212129;28;103363;-64
2022/12/22 11:22:49;;;;;;;19.37;17.40;;;;;;;22.27;28.40;95006.47;6212781;28;105926;-64
2022/12/22 11:26:02;;;;;;;19.13;17.50;;;;;;;22.27;28.46;95000.34;6202351;28;103802;-64
2022/12/22 11:29:20;;;;;;;18.23;16.70;;;;;;;22.24;28.60;95000.97;6211335;28;103287;-65
2022/12/22 11:32:39;;;;;;;18.27;16.77;;;;;;;22.24;28.16;95000.97;6211248;28;103188;-64
2022/12/22 11:35:56;;;;;;;18.70;17.20;;;;;;;22.21;28.26;94999.72;6207197;28;104092;-64
2022/12/22 11:39:07;;;;;;;18.23;16.70;;;;;;;22.18;28.37;94992.34;6207482;28;103034;-66
2022/12/22 11:42:29;;;;;;;17.03;15.67;;;;;;;22.18;28.61;94992.34;6211553;28;103248;-64
2022/12/22 11:45:47;;;;;;;18.17;16.60;;;;;;;22.13;28.68;94981.78;6212443;28;106603;-64
2022/12/22 11:49:10;;;;;;;18.40;16.90;;;;;;;22.14;28.85;94983.38;6201282;28;103251;-64
2022/12/22 11:52:33;;;;;;;17.40;15.90;;;;;;;22.11;28.90;94983.97;6212377;28;104197;-64
2022/12/22 11:55:39;;;;;;;17.83;16.33;;;;;;;22.09;28.62;94989.63;6211555;28;102806;-64
2022/12/22 11:58:58;;;;;;;17.10;15.70;;;;;;;22.08;29.08;94976.59;6204647;28;103120;-64
2022/12/22 12:02:25;;;;;;;17.47;15.97;;;;;;;22.05;28.66;94978.00;6209745;28;103051;-64
2022/12/22 12:06:04;;;;;;;17.63;16.03;;;;;;;22.03;29.06;94976.75;6211709;28;104161;-64
2022/12/22 12:09:25;;;;;;;17.30;15.80;;;;;;;22.01;28.58;94968.25;6187644;28;103055;-65
2022/12/22 12:12:34;;;;;;;17.90;16.30;;;;;;;21.95;29.23;94959.63;6203651;28;103207;-65
2022/12/22 12:15:42;;;;;;;18.13;16.47;;;;;;;21.86;28.91;94958.00;6211069;28;103248;-65
2022/12/22 12:19:17;;;;;;;17.70;16.27;;;;;;;21.94;29.17;94971.38;6211644;28;103257;-65
2022/12/22 12:22:44;;;;;;;17.13;15.57;;;;;;;21.91;29.19;94961.31;6200377;28;103481;-64
2022/12/22 12:25:59;;;;;;;17.40;15.90;;;;;;;21.89;29.34;94966.19;6210846;28;103280;-65
2022/12/22 12:29:15;;;;;;;16.87;15.43;;;;;;;21.86;29.38;94958.81;6211558;28;102891;-65
2022/12/22 12:32:24;;;;;;;16.03;14.67;;;;;;;21.85;29.43;94954.56;6205190;28;102829;-65
2022/12/22 12:35:45;;;;;;;16.90;15.50;;;;;;;21.84;29.13;94957.50;6205053;28;103050;-64
2022/12/22 12:38:57;;;;;;;17.07;15.60;;;;;;;21.80;29.20;94955.44;6210803;28;103374;-65
2022/12/22 12:42:30;;;;;;;17.90;16.40;;;;;;;21.76;29.30;94951.03;6210574;28;103029;-65
2022/12/22 12:45:36;;;;;;;17.23;15.73;;;;;;;21.78;29.21;94948.84;6199732;28;103007;-64
2022/12/22 12:48:40;;;;;;;16.57;15.10;;;;;;;21.76;29.31;94954.47;6210619;28;103230;-65
2022/12/22 12:51:48;;;;;;;16.33;14.93;;;;;;;21.75;29.14;94952.91;6210547;28;103075;-65
2022/12/22 12:54:52;;;;;;;16.40;15.00;;;;;;;21.64;29.50;94945.47;6208708;28;105016;-64
2022/12/22 12:57:57;;;;;;;15.33;14.00;;;;;;;21.66;29.54;94932.63;6205490;28;105873;-65
2022/12/22 13:01:01;;;;;;;16.03;14.70;;;;;;;21.61;29.60;94927.44;6210433;28;104166;-64
2022/12/22 13:04:04;;;;;;;15.80;14.50;;;;;;;21.70;29.64;94942.38;6210300;28;103029;-65
2022/12/22 13:07:08;;;;;;;16.63;15.13;;;;;;;21.59;29.31;94925.09;6199768;28;104093;-65
2022/12/22 13:10:21;;;;;;;15.03;13.73;;;;;;;21.68;29.30;94939.25;6209416;28;103419;-65
2022/12/22 13:13:50;;;;;;;15.90;14.50;;;;;;;21.66;29.45;94938.75;6210346;28;102996;-64
2022/12/22 13:17:33;;;;;;;16.27;14.87;;;;;;;21.65;29.25;94939.06;6210109;28;104250;-65
2022/12/22 13:20:37;;;;;;;15.60;14.20;;;;;;;21.55;29.38;94918.03;6202982;28;103327;-65
2022/12/22 13:23:42;;;;;;;15.27;14.00;;;;;;;21.63;29.38;94934.03;6214215;28;104235;-65
2022/12/22 13:27:10;;;;;;;14.93;13.63;;;;;;;21.63;29.47;94930.59;6214597;28;102679;-65
2022/12/22 13:30:17;;;;;;;17.00;15.40;;;;;;;21.64;29.96;94937.47;6203141;28;102865;-65
2022/12/22 13:33:25;;;;;;;16.17;14.90;;;;;;;21.62;29.95;94931.69;6213616;28;104411;-65
2022/12/22 13:36:29;;;;;;;15.87;14.40;;;;;;;21.58;29.53;94925.41;6214962;28;102811;-65
2022/12/22 13:39:32;;;;;;;14.90;13.60;;;;;;;21.60;29.66;94931.97;6213053;28;103038;-64
2022/12/22 13:42:38;;;;;;;15.40;14.10;;;;;;;21.54;29.97;94924.44;6203889;28;103311;-65
2022/12/22 13:45:45;;;;;;;15.10;13.80;;;;;;;21.59;29.39;94933.06;6212971;28;103013;-65
2022/12/22 13:48:50;;;;;;;15.30;14.03;;;;;;;21.53;29.36;94923.66;6213731;28;103158;-65
2022/12/22 13:51:53;;;;;;;15.33;14.07;;;;;;;21.58;29.59;94926.19;6208854;28;103029;-65
2022/12/22 13:55:13;;;;;;;15.80;14.50;;;;;;;21.54;29.58;94921.78;6208306;28;103453;-65
2022/12/22 13:58:27;;;;;;;15.20;13.83;;;;;;;21.57;29.42;94921.16;6213742;28;103639;-65
2022/12/22 14:01:31;;;;;;;15.63;14.33;;;;;;;21.53;29.87;94915.66;6188851;28;104035;-64
2022/12/22 14:04:36;;;;;;;15.83;14.43;;;;;;;21.56;29.34;94927.59;6177567;28;103073;-65
2022/12/22 14:07:39;;;;;;;15.37;13.97;;;;;;;21.55;29.43;94929.47;6187877;28;103080;-65
2022/12/22 14:10:44;;;;;;;15.20;13.83;;;;;;;21.55;29.73;94924.13;6187895;28;102961;-65
2022/12/22 14:13:47;;;;;;;14.40;13.10;;;;;;;21.55;29.41;94920.69;6188775;28;103196;-65
2022/12/22 14:16:54;;;;;;;14.60;13.30;;;;;;;21.54;29.54;94919.13;6178619;28;103656;-65
2022/12/22 14:19:59;;;;;;;14.87;13.57;;;;;;;21.52;29.70;94917.53;6188561;28;103029;-65
2022/12/22 14:23:08;;;;;;;15.20;13.90;;;;;;;21.52;30.00;94917.53;6188448;28;103638;-65
2022/12/22 14:26:17;;;;;;;14.07;12.93;;;;;;;21.51;29.78;94908.00;6183727;28;105309;-64
2022/12/22 14:29:25;;;;;;;16.00;14.60;;;;;;;21.50;29.70;94911.72;6183490;28;104353;-65
2022/12/22 14:32:39;;;;;;;15.10;13.93;;;;;;;21.52;29.94;94916.75;6188333;28;103195;-65
2022/12/22 14:35:42;;;;;;;15.90;14.40;;;;;;;21.44;29.64;94899.63;6188742;28;103327;-65
2022/12/22 14:38:47;;;;;;;15.00;13.60;;;;;;;21.50;29.95;94910.94;6177436;28;104181;-65
2022/12/22 14:41:53;;;;;;;14.33;13.10;;;;;;;21.47;29.42;94914.22;6187454;28;103279;-65
2022/12/22 14:44:57;;;;;;;15.23;13.87;;;;;;;21.48;29.32;94908.56;6187954;28;103376;-65
2022/12/22 14:48:01;;;;;;;14.43;13.13;;;;;;;21.46;29.65;94913.41;6207516;28;102960;-65
2022/12/22 14:51:05;;;;;;;13.97;12.70;;;;;;;21.47;29.80;94912.31;6203252;28;103260;-65
2022/12/22 14:54:19;;;;;;;14.17;12.90;;;;;;;21.47;29.61;94912.31;6212970;28;105507;-65
2022/12/22 14:57:30;;;;;;;14.60;13.30;;;;;;;21.45;29.82;94917.16;6212733;28;103317;-65
2022/12/22 15:00:36;;;;;;;13.90;12.80;;;;;;;21.44;29.94;94915.59;6203813;27;104781;-65
2022/12/22 15:03:41;;;;;;;13.20;12.10;;;;;;;21.46;29.69;94917.97;6211715;28;103232;-65
2022/12/22 15:06:46;;;;;;;14.23;13.00;;;;;;;21.46;29.39;94917.97;6212240;28;103325;-65
2022/12/22 15:09:49;;;;;;;13.90;12.80;;;;;;;21.45;29.58;94925.16;6212343;28;103045;-65
2022/12/22 15:13:19;;;;;;;14.33;13.10;;;;;;;21.44;29.61;94923.59;6201838;28;103269;-65
2022/12/22 15:16:23;;;;;;;14.60;13.30;;;;;;;21.44;29.49;94928.91;6211729;28;103138;-65
2022/12/22 15:19:30;;;;;;;16.10;14.67;;;;;;;21.43;29.94;94927.34;6199923;28;104735;-68
2022/12/22 15:22:33;;;;;;;19.43;17.83;;;;;;;21.47;30.53;94922.97;6226735;28;103332;-66
2022/12/22 15:25:36;;;;;;;20.07;18.17;;;;;;;21.53;30.90;94921.00;6207599;28;102854;-67
2022/12/22 15:28:39;;;;;;;26.10;24.10;;;;;;;21.57;31.45;94923.81;6214243;28;104944;-67
2022/12/22 15:31:43;;;;;;;28.07;25.53;;;;;;;21.55;32.04;94923.34;6214863;28;103034;-67
2022/12/22 15:34:48;;;;;;;94.40;88.10;;;;;;;21.63;34.14;94931.38;6216740;28;103162;-67
2022/12/22 15:37:51;;;;;;;95.67;89.07;;;;;;;21.57;34.07;94913.19;6210420;28;102868;-67
2022/12/22 15:40:54;;;;;;;103.33;96.40;;;;;;;21.70;34.24;94936.28;6210832;28;103068;-68
2022/12/22 15:43:57;;;;;;;88.27;82.03;;;;;;;21.68;33.77;94925.16;6207237;28;103459;-67
2022/12/22 15:47:01;;;;;;;81.50;75.57;;;;;;;21.66;33.64;94943.28;6206463;28;105163;-65
2022/12/22 15:50:08;;;;;;;76.03;70.57;;;;;;;21.56;33.19;94940.91;6210107;28;104238;-65
2022/12/22 15:53:16;;;;;;;72.70;67.60;;;;;;;21.56;33.20;94944.34;6211138;28;104202;-65
2022/12/22 15:56:21;;;;;;;69.73;64.63;;;;;;;21.48;32.72;94937.06;6211357;28;103107;-65
2022/12/22 15:59:27;;;;;;;67.00;61.80;;;;;;;21.51;32.16;94939.94;6200612;28;103106;-65
2022/12/22 16:02:30;;;;;;;63.10;58.60;;;;;;;21.49;32.19;94944.75;6211346;28;106707;-63
2022/12/22 16:05:34;;;;;;;63.33;58.40;;;;;;;21.49;32.54;94944.75;6210375;28;103238;-65
2022/12/22 16:08:41;;;;;;;64.30;59.37;;;;;;;21.43;32.57;94935.31;6205185;28;103434;-66
2022/12/22 16:11:44;;;;;;;61.30;56.33;;;;;;;21.50;32.50;94950.88;6205519;28;104263;-65
2022/12/22 16:14:51;;;;;;;58.70;54.20;;;;;;;21.48;31.99;94950.38;6209330;28;103223;-66
2022/12/22 16:17:54;;;;;;;55.70;51.20;;;;;;;21.44;31.98;94946.75;6210573;28;103167;-66
2022/12/22 16:21:06;;;;;;;55.80;51.60;;;;;;;21.47;31.71;94957.59;6200359;28;104442;-66
2022/12/22 16:24:20;;;;;;;55.70;51.53;;;;;;;21.43;31.65;94948.63;6211088;28;103190;-66
2022/12/22 16:27:23;;;;;;;51.07;47.10;;;;;;;21.41;31.52;94944.72;6210621;28;103333;-65
2022/12/22 16:30:30;;;;;;;51.07;47.17;;;;;;;21.44;31.43;94960.84;6210338;28;103510;-65
2022/12/22 16:33:33;;;;;;;50.30;46.50;;;;;;;21.45;31.33;94958.97;6201011;28;103315;-66
2022/12/22 16:36:37;;;;;;;46.87;43.20;;;;;;;21.44;31.42;94958.19;6210402;28;102837;-65
2022/12/22 16:39:41;;;;;;;46.60;42.80;;;;;;;21.37;31.44;94957.06;6210385;28;103170;-65
2022/12/22 16:42:51;;;;;;;46.93;43.27;;;;;;;21.43;31.26;94948.63;6205377;28;106465;-65
2022/12/22 16:46:15;;;;;;;43.20;39.63;;;;;;;21.43;31.35;94951.31;6209188;28;102719;-65
2022/12/22 16:49:21;;;;;;;42.53;39.13;;;;;;;21.43;31.01;94953.19;6210071;28;105647;-65
2022/12/22 16:52:37;;;;;;;39.40;36.40;;;;;;;21.43;31.10;94947.84;6210462;28;103316;-66
2022/12/22 16:55:41;;;;;;;40.23;36.90;;;;;;;21.43;30.98;94937.22;6200053;28;103377;-65
2022/12/22 16:58:44;;;;;;;37.57;34.70;;;;;;;21.40;30.99;94943.13;6213990;28;103099;-65
2022/12/22 17:01:50;;;;;;;37.20;34.30;;;;;;;21.41;31.26;94944.72;6235218;28;103162;-65
2022/12/22 17:04:56;;;;;;;35.03;32.40;;;;;;;21.33;30.81;94935.56;6238426;28;107500;-65
2022/12/22 17:08:01;;;;;;;35.00;31.87;;;;;;;21.40;30.89;94948.47;6233474;28;103603;-66
2022/12/22 17:11:08;;;;;;;33.77;31.13;;;;;;;21.30;30.72;94933.50;6238996;28;103581;-66
2022/12/22 17:14:26;;;;;;;34.47;31.20;;;;;;;21.39;30.63;94950.34;6238680;28;103215;-66
2022/12/22 17:17:29;;;;;;;30.90;28.30;;;;;;;21.39;30.75;94949.56;6229251;27;103034;-65
2022/12/22 17:20:38;;;;;;;30.20;27.60;;;;;;;21.39;30.85;94947.69;6238740;28;103083;-65
2022/12/22 17:23:46;;;;;;;29.57;27.17;;;;;;;21.39;30.59;94953.00;6239177;28;103119;-65
2022/12/22 17:26:50;;;;;;;28.80;26.47;;;;;;;21.38;30.63;94956.75;6238733;28;103093;-66
2022/12/22 17:29:54;;;;;;;28.20;25.80;;;;;;;21.37;30.61;94957.84;6228360;27;103616;-65
2022/12/22 17:32:57;;;;;;;27.20;24.90;;;;;;;21.38;30.79;94950.66;6239003;28;104024;-65
2022/12/22 17:36:01;;;;;;;26.07;23.90;;;;;;;21.39;30.45;94957.53;6238291;28;103634;-65
2022/12/22 17:39:10;;;;;;;28.70;26.30;;;;;;;21.42;30.68;94954.28;6235329;28;104307;-66
2022/12/22 17:42:17;;;;;;;26.70;24.40;;;;;;;21.22;30.36;94904.97;6232544;28;103125;-64
2022/12/22 17:45:20;;;;;;;27.33;24.93;;;;;;;21.43;30.88;94937.22;6238384;28;103170;-65
2022/12/22 17:48:23;;;;;;;24.67;22.57;;;;;;;21.49;30.92;94946.63;6237377;28;103693;-65